createdAt,value
2023-01-19T00:01:28.329Z,20.55
2023-01-19T00:03:56.568Z,23.50
2023-01-19T00:06:24.911Z,19.58
2023-01-19T00:08:53.196Z,22.20
2023-01-19T00:11:24.886Z,24.90
2023-01-19T00:13:54.211Z,20.15
2023-01-19T00:16:24.194Z,35.22
2023-01-19T00:18:53.896Z,18.40
2023-01-19T00:21:24.560Z,26.75
2023-01-19T00:23:53.092Z,23.40
2023-01-19T00:26:23.089Z,28.25
2023-01-19T00:28:53.046Z,27.77
2023-01-19T00:31:23.105Z,26.83
2023-01-19T00:33:52.786Z,26.63
2023-01-19T00:36:22.790Z,28.10
2023-01-19T00:38:51.254Z,28.58
2023-01-19T00:41:39.792Z,26.30
2023-01-19T00:44:08.251Z,30.20
2023-01-19T00:46:39.977Z,30.17
2023-01-19T00:49:09.562Z,32.22
2023-01-19T00:51:38.127Z,29.25
2023-01-19T00:54:10.538Z,32.10
2023-01-19T00:56:44.585Z,33.70
2023-01-19T00:59:13.300Z,31.08
2023-01-19T01:01:45.406Z,33.83
2023-01-19T01:04:15.510Z,31.08
2023-01-19T01:06:43.761Z,28.95
2023-01-19T01:09:12.971Z,33.40
2023-01-19T01:11:42.334Z,30.55
2023-01-19T01:14:11.475Z,31.20
2023-01-19T01:16:42.980Z,29.10
2023-01-19T01:19:12.191Z,35.65
2023-01-19T01:21:45.030Z,25.42
2023-01-19T01:26:41.349Z,29.38
2023-01-19T01:29:09.645Z,29.55
2023-01-19T01:31:40.268Z,28.70
2023-01-19T01:34:10.057Z,28.33
2023-01-19T01:36:38.532Z,35.10
2023-01-19T01:39:08.148Z,35.80
2023-01-19T01:41:37.684Z,30.23
2023-01-19T01:44:08.314Z,32.53
2023-01-19T01:46:37.574Z,19.48
2023-01-19T01:49:11.512Z,32.03
2023-01-19T01:51:43.501Z,35.00
2023-01-19T01:54:17.560Z,30.88
2023-01-19T01:56:49.111Z,34.00
2023-01-19T01:59:27.050Z,31.80
2023-01-19T02:02:14.758Z,33.28
2023-01-19T02:04:49.189Z,36.88
2023-01-19T02:07:48.438Z,28.55
2023-01-19T02:10:34.714Z,33.92
2023-01-19T02:13:23.028Z,34.22
2023-01-19T02:16:01.084Z,30.77
2023-01-19T02:18:32.065Z,34.15
2023-01-19T02:21:10.551Z,33.95
2023-01-19T02:23:44.049Z,39.40
2023-01-19T02:26:17.378Z,46.83
2023-01-19T02:28:49.064Z,38.47
2023-01-19T02:31:17.655Z,37.95
2023-01-19T02:33:48.578Z,40.45
2023-01-19T02:36:20.923Z,38.42
2023-01-19T02:38:52.825Z,37.63
2023-01-19T02:41:24.467Z,40.77
2023-01-19T02:43:55.012Z,36.60
2023-01-19T02:46:23.480Z,41.03
2023-01-19T02:48:54.390Z,40.13
2023-01-19T02:51:25.464Z,39.50
2023-01-19T02:54:20.206Z,38.38
2023-01-19T02:57:39.223Z,37.97
2023-01-19T03:00:20.290Z,42.70
2023-01-19T03:03:06.335Z,41.67
2023-01-19T03:05:47.590Z,39.97
2023-01-19T03:08:31.150Z,42.22
2023-01-19T03:11:03.447Z,42.53
2023-01-19T03:13:43.142Z,29.33
2023-01-19T03:16:17.235Z,41.35
2023-01-19T03:18:56.775Z,43.42
2023-01-19T03:21:28.140Z,44.20
2023-01-19T03:24:02.835Z,40.03
2023-01-19T03:26:38.235Z,40.00
2023-01-19T03:29:10.704Z,40.00
2023-01-19T03:31:40.885Z,49.63
2023-01-19T03:34:16.427Z,43.08
2023-01-19T03:36:48.223Z,47.75
2023-01-19T03:39:23.050Z,38.35
2023-01-19T03:41:55.688Z,42.10
2023-01-19T03:44:25.494Z,42.00
2023-01-19T03:47:02.135Z,39.33
2023-01-19T03:49:34.816Z,39.22
2023-01-19T03:52:03.131Z,41.60
2023-01-19T03:54:33.542Z,42.85
2023-01-19T03:57:03.998Z,44.85
2023-01-19T03:59:32.377Z,42.03
2023-01-19T04:02:01.027Z,49.50
2023-01-19T04:04:30.301Z,42.47
2023-01-19T04:07:00.146Z,41.17
2023-01-19T04:09:31.837Z,48.50
2023-01-19T04:12:02.026Z,43.25
2023-01-19T04:14:31.874Z,44.92
2023-01-19T04:17:00.280Z,38.17
2023-01-19T04:19:29.206Z,42.28
2023-01-19T04:21:59.861Z,43.85
2023-01-19T04:24:28.321Z,50.10
2023-01-19T04:26:59.678Z,45.60
2023-01-19T04:29:32.647Z,41.20
2023-01-19T04:32:03.947Z,36.85
2023-01-19T04:34:32.616Z,40.72
2023-01-19T04:37:00.805Z,48.22
2023-01-19T04:39:29.337Z,40.67
2023-01-19T04:42:00.634Z,40.72
2023-01-19T04:44:30.387Z,40.50
2023-01-19T04:46:58.762Z,44.03
2023-01-19T04:49:28.644Z,44.60
2023-01-19T04:51:57.927Z,44.13
2023-01-19T04:54:27.623Z,43.90
2023-01-19T04:56:56.024Z,37.70
2023-01-19T04:59:27.454Z,44.63
2023-01-19T05:01:57.968Z,42.03
2023-01-19T05:04:28.827Z,38.67
2023-01-19T05:06:58.279Z,39.97
2023-01-19T05:09:27.397Z,37.75
2023-01-19T05:11:56.039Z,42.97
2023-01-19T05:14:25.608Z,40.08
2023-01-19T05:16:54.345Z,41.28
2023-01-19T05:19:24.100Z,47.67
2023-01-19T05:21:54.435Z,41.67
2023-01-19T05:24:22.863Z,38.03
2023-01-19T05:26:55.941Z,37.95
2023-01-19T05:29:24.420Z,43.47
2023-01-19T05:31:53.177Z,42.65
2023-01-19T05:34:21.856Z,42.67
2023-01-19T05:36:51.076Z,42.65
2023-01-19T05:39:20.465Z,41.03
2023-01-19T05:41:51.933Z,46.97
2023-01-19T05:44:23.068Z,35.30
2023-01-19T05:46:52.660Z,37.25
2023-01-19T05:49:22.483Z,46.03
2023-01-19T05:51:50.701Z,49.60
2023-01-19T05:54:19.211Z,45.40
2023-01-19T05:56:49.671Z,45.30
2023-01-19T05:59:24.235Z,41.38
2023-01-19T06:01:54.438Z,38.88
2023-01-19T06:04:23.244Z,43.47
2023-01-19T06:06:52.031Z,42.80
2023-01-19T06:09:40.401Z,41.25
2023-01-19T06:12:23.662Z,44.15
2023-01-19T06:14:53.257Z,46.40
2023-01-19T06:17:32.312Z,40.80
2023-01-19T06:20:02.553Z,35.97
2023-01-19T06:22:33.003Z,41.70
2023-01-19T06:25:03.696Z,44.92
2023-01-19T06:27:33.691Z,35.92
2023-01-19T06:30:02.137Z,45.25
2023-01-19T06:32:31.530Z,48.08
2023-01-19T06:35:00.348Z,43.88
2023-01-19T06:37:30.662Z,39.03
2023-01-19T06:39:58.994Z,43.53
2023-01-19T06:42:29.545Z,46.95
2023-01-19T06:44:59.307Z,34.47
2023-01-19T06:47:28.519Z,36.83
2023-01-19T06:49:58.502Z,38.17
2023-01-19T06:52:27.077Z,41.10
2023-01-19T06:54:57.848Z,40.42
2023-01-19T06:57:27.131Z,39.63
2023-01-19T06:59:55.770Z,41.03
2023-01-19T07:02:28.553Z,40.33
2023-01-19T07:04:57.550Z,40.05
2023-01-19T07:07:26.180Z,42.42
2023-01-19T07:09:55.352Z,38.92
2023-01-19T07:12:23.929Z,39.05
2023-01-19T07:14:57.303Z,34.78
2023-01-19T07:17:29.768Z,45.42
2023-01-19T07:20:01.325Z,34.45
2023-01-19T07:22:32.362Z,36.35
2023-01-19T07:25:02.523Z,33.30
2023-01-19T07:27:31.073Z,35.03
2023-01-19T07:30:02.071Z,38.17
2023-01-19T07:32:32.406Z,35.83
2023-01-19T07:35:03.184Z,38.60
2023-01-19T07:37:32.032Z,34.95
2023-01-19T07:40:01.829Z,34.15
2023-01-19T07:42:30.100Z,33.25
2023-01-19T07:45:01.232Z,34.75
2023-01-19T07:47:29.924Z,31.75
2023-01-19T07:50:03.445Z,30.88
2023-01-19T07:52:35.783Z,37.20
2023-01-19T07:55:07.767Z,40.05
2023-01-19T07:57:43.344Z,36.17
2023-01-19T08:00:14.544Z,32.05
2023-01-19T08:02:43.854Z,33.63
2023-01-19T08:05:14.316Z,42.28
2023-01-19T08:07:46.302Z,34.25
2023-01-19T08:10:16.753Z,38.10
2023-01-19T08:12:44.892Z,35.10
2023-01-19T08:15:13.597Z,38.67
2023-01-19T08:17:41.561Z,28.90
2023-01-19T08:20:12.675Z,32.53
2023-01-19T08:22:44.988Z,34.13
2023-01-19T08:25:13.404Z,35.83
2023-01-19T08:27:44.688Z,26.52
2023-01-19T08:30:13.364Z,34.13
2023-01-19T08:32:41.883Z,31.08
2023-01-19T08:35:11.049Z,22.98
2023-01-19T08:37:39.009Z,32.40
2023-01-19T08:40:10.915Z,31.88
2023-01-19T08:42:39.674Z,41.25
2023-01-19T08:45:09.281Z,30.80
2023-01-19T08:47:37.997Z,33.88
2023-01-19T08:50:07.568Z,24.92
2023-01-19T08:52:38.146Z,28.80
2023-01-19T08:55:12.591Z,33.00
2023-01-19T08:57:41.010Z,29.77
2023-01-19T09:00:11.092Z,28.77
2023-01-19T09:02:41.504Z,30.42
2023-01-19T09:05:09.996Z,26.90
2023-01-19T09:07:38.328Z,28.23
2023-01-19T09:10:07.971Z,26.20
2023-01-19T09:12:39.252Z,28.45
2023-01-19T09:15:08.416Z,29.90
2023-01-19T09:17:37.243Z,28.77
2023-01-19T09:20:06.156Z,25.33
2023-01-19T09:22:34.418Z,26.52
2023-01-19T09:25:02.611Z,25.92
2023-01-19T09:27:30.797Z,27.17
2023-01-19T09:30:00.333Z,26.25
2023-01-19T09:32:30.582Z,30.10
2023-01-19T09:34:58.723Z,28.73
2023-01-19T09:37:26.882Z,27.00
2023-01-19T09:39:55.099Z,26.23
2023-01-19T09:42:37.565Z,22.17
2023-01-19T09:45:14.869Z,24.10
2023-01-19T09:47:43.666Z,28.65
2023-01-19T09:50:27.179Z,27.52
2023-01-19T09:53:01.386Z,22.80
2023-01-19T09:55:30.982Z,25.42
2023-01-19T09:57:59.424Z,25.50
2023-01-19T10:00:33.207Z,25.35
2023-01-19T10:03:09.563Z,24.35
2023-01-19T10:05:44.875Z,25.90
2023-01-19T10:08:20.545Z,26.83
2023-01-19T10:10:54.017Z,24.65
2023-01-19T10:13:31.356Z,27.60
2023-01-19T10:16:08.012Z,22.45
2023-01-19T10:18:47.707Z,24.13
2023-01-19T10:21:21.482Z,22.40
2023-01-19T10:23:57.178Z,28.42
2023-01-19T10:26:28.149Z,25.95
2023-01-19T10:29:02.950Z,29.33
2023-01-19T10:31:37.374Z,24.50
2023-01-19T10:34:05.514Z,27.95
2023-01-19T10:36:45.149Z,28.67
2023-01-19T10:39:19.208Z,31.88
2023-01-19T10:41:51.921Z,29.05
2023-01-19T10:44:25.574Z,30.75
2023-01-19T10:46:56.951Z,31.77
2023-01-19T10:49:29.498Z,27.50
2023-01-19T10:51:59.518Z,26.77
2023-01-19T10:54:29.541Z,22.20
2023-01-19T10:57:02.754Z,25.52
2023-01-19T10:59:37.401Z,25.35
2023-01-19T11:02:22.770Z,26.88
2023-01-19T11:04:53.137Z,23.85
2023-01-19T11:07:25.353Z,20.30
2023-01-19T11:10:21.214Z,23.77
2023-01-19T11:13:03.213Z,20.25
2023-01-19T11:15:36.080Z,22.77
2023-01-19T11:18:07.620Z,23.98
2023-01-19T11:20:49.720Z,21.63
2023-01-19T11:23:26.541Z,20.25
2023-01-19T11:25:57.691Z,18.98
2023-01-19T11:28:29.539Z,20.58
2023-01-19T11:30:59.162Z,19.83
2023-01-19T11:33:35.985Z,16.98
2023-01-19T11:36:16.327Z,18.88
2023-01-19T11:38:46.183Z,18.88
2023-01-19T11:41:20.566Z,19.38
2023-01-19T11:43:51.295Z,19.65
2023-01-19T11:46:19.862Z,21.13
2023-01-19T11:48:57.360Z,21.15
2023-01-19T11:51:29.861Z,16.95
2023-01-19T11:54:00.551Z,23.20
2023-01-19T11:56:30.579Z,17.73
2023-01-19T11:59:01.015Z,18.85
2023-01-19T12:01:32.683Z,20.10
2023-01-19T12:04:05.629Z,18.80
2023-01-19T12:06:37.944Z,15.00
2023-01-19T12:09:13.329Z,12.98
2023-01-19T12:11:45.721Z,15.38
2023-01-19T12:14:20.508Z,15.40
2023-01-19T12:16:49.087Z,16.10
2023-01-19T12:19:23.328Z,18.42
2023-01-19T12:21:52.454Z,16.27
2023-01-19T12:24:28.701Z,17.92
2023-01-19T12:26:58.956Z,20.38
2023-01-19T12:29:30.244Z,18.50
2023-01-19T12:32:20.005Z,17.50
2023-01-19T12:34:52.305Z,19.35
2023-01-19T12:37:41.788Z,19.35
2023-01-19T12:40:26.071Z,14.10
2023-01-19T12:43:02.189Z,16.38
2023-01-19T12:45:33.365Z,15.90
2023-01-19T12:48:03.448Z,16.98
2023-01-19T12:50:38.067Z,19.55
2023-01-19T12:53:17.095Z,14.50
2023-01-19T12:55:46.851Z,14.60
2023-01-19T12:58:18.961Z,14.98
2023-01-19T13:00:50.423Z,14.40
2023-01-19T13:03:44.884Z,15.65
2023-01-19T13:06:14.241Z,12.13
2023-01-19T13:09:06.477Z,14.10
2023-01-19T13:11:35.913Z,15.70
2023-01-19T13:14:37.135Z,13.68
2023-01-19T13:17:24.468Z,17.13
2023-01-19T13:20:07.276Z,14.30
2023-01-19T13:23:02.379Z,13.48
2023-01-19T13:25:35.374Z,13.18
2023-01-19T13:30:37.346Z,16.27
2023-01-19T13:33:23.528Z,11.48
2023-01-19T13:36:00.979Z,13.50
2023-01-19T13:38:32.967Z,15.23
2023-01-19T13:41:03.145Z,12.75
2023-01-19T13:43:35.820Z,15.95
2023-01-19T13:46:04.418Z,12.52
2023-01-19T13:48:33.373Z,16.95
2023-01-19T13:51:04.674Z,13.23
2023-01-19T13:53:36.957Z,13.95
2023-01-19T13:56:23.311Z,15.45
2023-01-19T13:59:04.630Z,13.68
2023-01-19T14:01:33.708Z,14.43
2023-01-19T14:04:02.505Z,13.73
2023-01-19T14:06:40.033Z,13.73
2023-01-19T14:09:16.802Z,11.75
2023-01-19T14:11:46.391Z,16.80
2023-01-19T14:14:27.831Z,14.80
2023-01-19T14:16:56.208Z,13.35
2023-01-19T14:19:25.858Z,13.07
2023-01-19T14:22:01.962Z,14.15
2023-01-19T14:24:35.561Z,12.50
2023-01-19T14:27:34.825Z,12.13
2023-01-19T14:30:21.440Z,14.25
2023-01-19T14:32:50.031Z,12.32
2023-01-19T14:35:26.252Z,13.55
2023-01-19T14:37:55.559Z,11.88
2023-01-19T14:40:39.610Z,12.13
2023-01-19T14:43:07.867Z,12.32
2023-01-19T14:45:41.098Z,10.88
2023-01-19T14:48:19.315Z,11.95
2023-01-19T14:51:02.512Z,13.50
2023-01-19T14:53:37.186Z,12.25
2023-01-19T14:56:11.797Z,12.32
2023-01-19T14:58:42.416Z,11.45
2023-01-19T15:01:12.914Z,11.57
2023-01-19T15:03:45.438Z,13.02
2023-01-19T15:06:19.071Z,10.43
2023-01-19T15:08:52.003Z,10.43
2023-01-19T15:11:24.457Z,11.80
2023-01-19T15:13:52.959Z,10.35
2023-01-19T15:16:21.743Z,10.32
2023-01-19T15:18:51.143Z,13.00
2023-01-19T15:21:23.404Z,15.68
2023-01-19T15:23:54.254Z,14.35
2023-01-19T15:26:26.764Z,11.27
2023-01-19T15:28:55.697Z,12.77
2023-01-19T15:31:26.483Z,11.20
2023-01-19T15:33:58.393Z,11.38
2023-01-19T15:36:26.728Z,11.07
2023-01-19T15:38:57.116Z,9.55
2023-01-19T15:41:29.809Z,13.00
2023-01-19T15:43:58.215Z,9.02
2023-01-19T15:46:27.642Z,13.70
2023-01-19T15:48:56.235Z,12.82
2023-01-19T15:51:26.857Z,10.02
2023-01-19T15:53:58.857Z,11.73
2023-01-19T15:56:32.596Z,12.68
2023-01-19T15:59:01.299Z,14.05
2023-01-19T16:01:32.192Z,15.30
2023-01-19T16:04:02.510Z,16.02
2023-01-19T16:06:33.266Z,12.05
2023-01-19T16:09:05.079Z,11.90
2023-01-19T16:11:37.629Z,10.98
2023-01-19T16:14:08.354Z,12.48
2023-01-19T16:16:36.570Z,10.13
2023-01-19T16:19:05.340Z,13.23
2023-01-19T16:21:35.161Z,9.90
2023-01-19T16:24:03.558Z,10.65
2023-01-19T16:26:34.264Z,12.10
2023-01-19T16:29:07.949Z,11.35
2023-01-19T16:31:36.585Z,9.07
2023-01-19T16:34:05.439Z,12.30
2023-01-19T16:36:36.521Z,14.15
2023-01-19T16:39:07.332Z,10.25
2023-01-19T16:41:38.939Z,9.45
2023-01-19T16:44:14.161Z,9.32
2023-01-19T16:46:45.140Z,10.15
2023-01-19T16:49:18.975Z,12.32
2023-01-19T16:51:47.830Z,13.45
2023-01-19T16:54:22.814Z,11.80
2023-01-19T16:56:51.447Z,10.68
2023-01-19T16:59:22.719Z,9.75
2023-01-19T17:01:54.977Z,8.80
2023-01-19T17:04:25.042Z,11.60
2023-01-19T17:06:54.827Z,9.25
2023-01-19T17:09:25.559Z,10.82
2023-01-19T17:11:54.557Z,12.32
2023-01-19T17:14:26.989Z,12.00
2023-01-19T17:16:56.019Z,12.90
2023-01-19T17:19:24.452Z,9.30
2023-01-19T17:21:52.768Z,12.00
2023-01-19T17:24:21.608Z,10.88
2023-01-19T17:26:50.095Z,10.23
2023-01-19T17:29:19.407Z,9.60
2023-01-19T17:31:51.481Z,10.60
2023-01-19T17:34:23.133Z,12.93
2023-01-19T17:36:52.397Z,11.43
2023-01-19T17:39:20.943Z,13.25
2023-01-19T17:41:50.352Z,13.70
2023-01-19T17:44:18.628Z,12.43
2023-01-19T17:46:47.195Z,12.20
2023-01-19T17:49:17.021Z,10.13
2023-01-19T17:51:46.102Z,11.48
2023-01-19T17:54:14.869Z,13.63
2023-01-19T17:56:44.398Z,12.32
2023-01-19T17:59:15.234Z,11.85
2023-01-19T18:01:45.566Z,15.45
2023-01-19T18:04:13.992Z,13.52
2023-01-19T18:06:43.315Z,16.77
2023-01-19T18:09:11.806Z,15.23
2023-01-19T18:11:45.172Z,14.77
2023-01-19T18:14:15.752Z,13.63
2023-01-19T18:16:47.240Z,16.88
2023-01-19T18:19:18.311Z,13.98
2023-01-19T18:21:51.443Z,14.75
2023-01-19T18:24:22.492Z,13.30
2023-01-19T18:26:55.518Z,15.38
2023-01-19T18:29:25.199Z,13.50
2023-01-19T18:31:56.401Z,12.57
2023-01-19T18:34:25.516Z,14.98
2023-01-19T18:36:55.387Z,11.45
2023-01-19T18:39:23.920Z,15.07
2023-01-19T18:41:52.109Z,15.13
2023-01-19T18:44:20.909Z,16.23
2023-01-19T18:46:49.210Z,17.50
2023-01-19T18:49:17.696Z,12.90
2023-01-19T18:51:53.418Z,17.30
2023-01-19T18:54:23.223Z,15.57
2023-01-19T18:56:52.507Z,12.45
2023-01-19T18:59:21.112Z,12.73
2023-01-19T19:01:49.961Z,14.25
2023-01-19T19:04:19.465Z,12.20
2023-01-19T19:06:50.551Z,12.23
2023-01-19T19:09:19.301Z,13.02
2023-01-19T19:11:49.361Z,11.73
2023-01-19T19:14:17.581Z,14.93
2023-01-19T19:16:49.720Z,13.18
2023-01-19T19:19:18.773Z,16.47
2023-01-19T19:21:58.918Z,15.93
2023-01-19T19:24:27.192Z,19.65
2023-01-19T19:26:57.971Z,15.13
2023-01-19T19:29:27.178Z,16.55
2023-01-19T19:31:58.175Z,16.00
2023-01-19T19:34:29.226Z,13.10
2023-01-19T19:36:59.762Z,12.25
2023-01-19T19:39:30.864Z,14.02
2023-01-19T19:42:00.640Z,10.80
2023-01-19T19:44:29.629Z,22.60
2023-01-19T19:46:58.247Z,19.15
2023-01-19T19:49:27.021Z,13.20
2023-01-19T19:51:56.857Z,15.82
2023-01-19T19:54:27.452Z,17.15
2023-01-19T19:56:57.558Z,11.45
2023-01-19T19:59:28.248Z,15.48
2023-01-19T20:02:01.635Z,16.85
2023-01-19T20:04:33.191Z,11.55
2023-01-19T20:07:01.294Z,17.63
2023-01-19T20:09:33.240Z,12.88
2023-01-19T20:12:03.942Z,14.23
2023-01-19T20:14:34.746Z,14.82
2023-01-19T20:17:03.259Z,14.02
2023-01-19T20:19:32.698Z,20.17
2023-01-19T20:22:01.794Z,22.08
2023-01-19T20:24:30.963Z,13.82
2023-01-19T20:27:00.583Z,16.88
2023-01-19T20:29:31.619Z,15.13
2023-01-19T20:32:01.322Z,16.08
2023-01-19T20:34:33.901Z,13.48
2023-01-19T20:37:03.775Z,19.40
2023-01-19T20:39:34.613Z,13.55
2023-01-19T20:42:05.025Z,12.52
2023-01-19T20:44:35.564Z,16.33
2023-01-19T20:47:06.820Z,15.27
2023-01-19T20:49:35.157Z,15.90
2023-01-19T20:52:05.781Z,14.43
2023-01-19T20:54:36.136Z,13.90
2023-01-19T20:57:04.475Z,15.45
2023-01-19T20:59:34.112Z,16.77
2023-01-19T21:02:02.632Z,18.20
2023-01-19T21:04:32.270Z,16.05
2023-01-19T21:07:02.601Z,22.05
2023-01-19T21:09:38.059Z,21.15
2023-01-19T21:12:07.878Z,23.27
2023-01-19T21:14:36.287Z,25.17
2023-01-19T21:17:04.629Z,28.23
2023-01-19T21:19:35.761Z,27.17
2023-01-19T21:22:05.500Z,26.73
2023-01-19T21:24:39.827Z,38.38
2023-01-19T21:27:15.241Z,29.23
2023-01-19T21:29:46.160Z,29.88
2023-01-19T21:32:14.331Z,25.83
2023-01-19T21:34:45.792Z,26.08
2023-01-19T21:37:16.121Z,26.50
2023-01-19T21:39:44.869Z,24.65
2023-01-19T21:42:13.320Z,23.75
2023-01-19T21:44:42.243Z,23.42
2023-01-19T21:47:11.830Z,18.20
2023-01-19T21:49:41.122Z,21.90
2023-01-19T21:52:11.664Z,25.35
2023-01-19T21:54:40.125Z,27.63
2023-01-19T21:57:08.879Z,21.77
2023-01-19T21:59:42.008Z,22.85
2023-01-19T22:02:13.832Z,21.67
2023-01-19T22:04:44.834Z,21.58
2023-01-19T22:07:16.702Z,21.08
2023-01-19T22:09:44.955Z,24.30
2023-01-19T22:12:13.417Z,24.10
2023-01-19T22:14:41.739Z,21.65
2023-01-19T22:17:11.303Z,19.35
2023-01-19T22:19:40.775Z,19.17
2023-01-19T22:22:09.484Z,17.88
2023-01-19T22:24:42.083Z,17.27
2023-01-19T22:27:10.681Z,16.88
2023-01-19T22:29:41.315Z,16.10
2023-01-19T22:32:11.094Z,17.33
2023-01-19T22:34:43.576Z,17.25
2023-01-19T22:37:12.800Z,20.80
2023-01-19T22:39:44.035Z,17.77
2023-01-19T22:42:11.977Z,17.20
2023-01-19T22:44:40.550Z,13.95
2023-01-19T22:47:11.158Z,14.07
2023-01-19T22:49:42.144Z,18.33
2023-01-19T22:52:10.600Z,17.15
2023-01-19T22:54:40.731Z,15.63
2023-01-19T22:57:16.008Z,13.38
2023-01-19T22:59:44.803Z,15.20
2023-01-19T23:02:13.059Z,13.30
2023-01-19T23:04:41.791Z,15.95
2023-01-19T23:07:10.327Z,15.25
2023-01-19T23:09:39.205Z,19.40
2023-01-19T23:12:09.815Z,17.88
2023-01-19T23:14:38.180Z,13.10
2023-01-19T23:17:08.061Z,16.00
2023-01-19T23:19:37.360Z,16.48
2023-01-19T23:22:05.573Z,17.42
2023-01-19T23:24:37.588Z,16.17
2023-01-19T23:27:07.277Z,18.52
2023-01-19T23:29:37.332Z,19.50
2023-01-19T23:32:08.357Z,18.17
2023-01-19T23:34:40.777Z,21.52
2023-01-19T23:37:11.297Z,18.80
2023-01-19T23:39:40.558Z,18.10
2023-01-19T23:42:09.101Z,19.67
2023-01-19T23:44:51.931Z,18.17
2023-01-19T23:47:24.847Z,19.83
2023-01-19T23:52:21.023Z,14.10
2023-01-19T23:54:49.472Z,18.17
2023-01-19T23:57:18.907Z,20.40
2023-01-19T23:59:48.483Z,15.18
